sensor_id;sensor_type;location;lat;lon;timestamp;P1;durP1;ratioP1;P2;durP2;ratioP2
19278;SDS011;9773;47.062;15.446;2023-07-13T00:00:33;1.90;;;1.50;;
19278;SDS011;9773;47.062;15.446;2023-07-13T00:02:59;1.37;;;1.27;;
19278;SDS011;9773;47.062;15.446;2023-07-13T00:05:25;3.07;;;1.20;;
19278;SDS011;9773;47.062;15.446;2023-07-13T00:07:51;1.27;;;1.20;;
19278;SDS011;9773;47.062;15.446;2023-07-13T00:10:17;1.70;;;1.00;;
19278;SDS011;9773;47.062;15.446;2023-07-13T00:12:43;0.87;;;0.80;;
19278;SDS011;9773;47.062;15.446;2023-07-13T00:15:13;1.33;;;1.00;;
19278;SDS011;9773;47.062;15.446;2023-07-13T00:17:42;1.00;;;1.00;;
19278;SDS011;9773;47.062;15.446;2023-07-13T00:20:10;1.73;;;1.03;;
19278;SDS011;9773;47.062;15.446;2023-07-13T00:22:36;1.03;;;1.00;;
19278;SDS011;9773;47.062;15.446;2023-07-13T00:25:02;0.83;;;0.83;;
19278;SDS011;9773;47.062;15.446;2023-07-13T00:27:28;2.20;;;1.00;;
19278;SDS011;9773;47.062;15.446;2023-07-13T00:29:58;1.07;;;1.07;;
19278;SDS011;9773;47.062;15.446;2023-07-13T00:32:24;1.07;;;1.07;;
19278;SDS011;9773;47.062;15.446;2023-07-13T00:34:50;1.10;;;1.00;;
19278;SDS011;9773;47.062;15.446;2023-07-13T00:37:17;1.33;;;1.10;;
19278;SDS011;9773;47.062;15.446;2023-07-13T00:39:42;0.83;;;0.83;;
19278;SDS011;9773;47.062;15.446;2023-07-13T00:42:08;1.10;;;1.10;;
19278;SDS011;9773;47.062;15.446;2023-07-13T00:44:34;1.00;;;1.00;;
19278;SDS011;9773;47.062;15.446;2023-07-13T00:47:00;0.87;;;0.87;;
19278;SDS011;9773;47.062;15.446;2023-07-13T00:49:27;1.37;;;0.97;;
19278;SDS011;9773;47.062;15.446;2023-07-13T00:52:04;1.00;;;1.00;;
19278;SDS011;9773;47.062;15.446;2023-07-13T00:54:34;0.90;;;0.90;;
19278;SDS011;9773;47.062;15.446;2023-07-13T00:57:10;0.93;;;0.93;;
19278;SDS011;9773;47.062;15.446;2023-07-13T00:59:40;1.67;;;0.90;;
19278;SDS011;9773;47.062;15.446;2023-07-13T01:02:08;1.17;;;1.17;;
19278;SDS011;9773;47.062;15.446;2023-07-13T01:04:35;0.97;;;0.97;;
19278;SDS011;9773;47.062;15.446;2023-07-13T01:07:01;1.03;;;1.00;;
19278;SDS011;9773;47.062;15.446;2023-07-13T01:09:27;1.47;;;1.07;;
19278;SDS011;9773;47.062;15.446;2023-07-13T01:11:53;1.17;;;1.07;;
19278;SDS011;9773;47.062;15.446;2023-07-13T01:14:19;2.60;;;1.20;;
19278;SDS011;9773;47.062;15.446;2023-07-13T01:16:45;1.20;;;1.20;;
19278;SDS011;9773;47.062;15.446;2023-07-13T01:22:06;1.60;;;1.00;;
19278;SDS011;9773;47.062;15.446;2023-07-13T01:24:36;1.10;;;1.10;;
19278;SDS011;9773;47.062;15.446;2023-07-13T01:27:04;1.33;;;1.23;;
19278;SDS011;9773;47.062;15.446;2023-07-13T01:29:31;1.60;;;1.50;;
19278;SDS011;9773;47.062;15.446;2023-07-13T01:31:59;1.20;;;1.20;;
19278;SDS011;9773;47.062;15.446;2023-07-13T01:34:26;1.30;;;1.30;;
19278;SDS011;9773;47.062;15.446;2023-07-13T01:36:52;1.67;;;1.50;;
19278;SDS011;9773;47.062;15.446;2023-07-13T01:39:21;1.30;;;1.30;;
19278;SDS011;9773;47.062;15.446;2023-07-13T01:41:48;1.67;;;1.57;;
19278;SDS011;9773;47.062;15.446;2023-07-13T01:44:14;1.77;;;1.67;;
19278;SDS011;9773;47.062;15.446;2023-07-13T01:46:39;5.20;;;2.07;;
19278;SDS011;9773;47.062;15.446;2023-07-13T01:49:05;1.83;;;1.70;;
19278;SDS011;9773;47.062;15.446;2023-07-13T01:51:31;2.07;;;1.87;;
19278;SDS011;9773;47.062;15.446;2023-07-13T01:53:56;3.33;;;2.00;;
19278;SDS011;9773;47.062;15.446;2023-07-13T01:56:22;1.83;;;1.70;;
19278;SDS011;9773;47.062;15.446;2023-07-13T01:58:49;2.07;;;1.80;;
19278;SDS011;9773;47.062;15.446;2023-07-13T02:01:15;4.17;;;2.00;;
19278;SDS011;9773;47.062;15.446;2023-07-13T02:03:40;1.80;;;1.70;;
19278;SDS011;9773;47.062;15.446;2023-07-13T02:06:06;2.90;;;1.80;;
19278;SDS011;9773;47.062;15.446;2023-07-13T02:08:32;1.80;;;1.70;;
19278;SDS011;9773;47.062;15.446;2023-07-13T02:10:58;2.37;;;2.17;;
19278;SDS011;9773;47.062;15.446;2023-07-13T02:13:24;1.70;;;1.70;;
19278;SDS011;9773;47.062;15.446;2023-07-13T02:15:51;1.67;;;1.63;;
19278;SDS011;9773;47.062;15.446;2023-07-13T02:18:16;2.00;;;1.90;;
19278;SDS011;9773;47.062;15.446;2023-07-13T02:20:43;1.53;;;1.43;;
19278;SDS011;9773;47.062;15.446;2023-07-13T02:23:09;1.60;;;1.60;;
19278;SDS011;9773;47.062;15.446;2023-07-13T02:25:36;1.40;;;1.33;;
19278;SDS011;9773;47.062;15.446;2023-07-13T02:28:01;1.40;;;1.40;;
19278;SDS011;9773;47.062;15.446;2023-07-13T02:30:28;1.50;;;1.40;;
19278;SDS011;9773;47.062;15.446;2023-07-13T02:32:55;2.47;;;1.80;;
19278;SDS011;9773;47.062;15.446;2023-07-13T02:35:21;2.60;;;1.77;;
19278;SDS011;9773;47.062;15.446;2023-07-13T02:37:47;1.77;;;1.67;;
19278;SDS011;9773;47.062;15.446;2023-07-13T02:40:13;2.23;;;1.83;;
19278;SDS011;9773;47.062;15.446;2023-07-13T02:42:39;1.70;;;1.60;;
19278;SDS011;9773;47.062;15.446;2023-07-13T02:45:06;2.10;;;1.73;;
19278;SDS011;9773;47.062;15.446;2023-07-13T02:47:32;1.97;;;1.87;;
19278;SDS011;9773;47.062;15.446;2023-07-13T02:49:59;1.77;;;1.77;;
19278;SDS011;9773;47.062;15.446;2023-07-13T02:52:24;2.10;;;2.00;;
19278;SDS011;9773;47.062;15.446;2023-07-13T02:54:50;2.23;;;2.13;;
19278;SDS011;9773;47.062;15.446;2023-07-13T02:57:16;2.03;;;1.93;;
19278;SDS011;9773;47.062;15.446;2023-07-13T02:59:41;2.10;;;2.00;;
19278;SDS011;9773;47.062;15.446;2023-07-13T03:02:07;2.07;;;1.90;;
19278;SDS011;9773;47.062;15.446;2023-07-13T03:04:35;2.27;;;2.13;;
19278;SDS011;9773;47.062;15.446;2023-07-13T03:07:02;2.30;;;2.20;;
19278;SDS011;9773;47.062;15.446;2023-07-13T03:09:28;3.60;;;2.63;;
19278;SDS011;9773;47.062;15.446;2023-07-13T03:11:55;2.47;;;2.37;;
19278;SDS011;9773;47.062;15.446;2023-07-13T03:14:22;2.70;;;2.60;;
19278;SDS011;9773;47.062;15.446;2023-07-13T03:16:48;2.17;;;1.97;;
19278;SDS011;9773;47.062;15.446;2023-07-13T03:19:14;2.80;;;2.60;;
19278;SDS011;9773;47.062;15.446;2023-07-13T03:21:40;2.47;;;2.37;;
19278;SDS011;9773;47.062;15.446;2023-07-13T03:24:06;2.40;;;2.30;;
19278;SDS011;9773;47.062;15.446;2023-07-13T03:26:32;2.30;;;2.20;;
19278;SDS011;9773;47.062;15.446;2023-07-13T03:28:58;2.07;;;1.87;;
19278;SDS011;9773;47.062;15.446;2023-07-13T03:31:25;2.53;;;2.33;;
19278;SDS011;9773;47.062;15.446;2023-07-13T03:33:56;2.13;;;2.03;;
19278;SDS011;9773;47.062;15.446;2023-07-13T03:36:25;2.30;;;2.00;;
19278;SDS011;9773;47.062;15.446;2023-07-13T03:38:54;2.20;;;1.77;;
19278;SDS011;9773;47.062;15.446;2023-07-13T03:41:23;2.03;;;1.93;;
19278;SDS011;9773;47.062;15.446;2023-07-13T03:43:50;3.23;;;3.03;;
19278;SDS011;9773;47.062;15.446;2023-07-13T03:46:16;2.07;;;1.97;;
19278;SDS011;9773;47.062;15.446;2023-07-13T03:48:44;1.97;;;1.87;;
19278;SDS011;9773;47.062;15.446;2023-07-13T03:51:11;2.10;;;2.00;;
19278;SDS011;9773;47.062;15.446;2023-07-13T03:53:43;2.23;;;2.13;;
19278;SDS011;9773;47.062;15.446;2023-07-13T03:56:09;2.73;;;2.23;;
19278;SDS011;9773;47.062;15.446;2023-07-13T03:58:37;2.97;;;2.30;;
19278;SDS011;9773;47.062;15.446;2023-07-13T04:01:05;2.70;;;2.43;;
19278;SDS011;9773;47.062;15.446;2023-07-13T04:03:33;3.33;;;2.00;;
19278;SDS011;9773;47.062;15.446;2023-07-13T04:06:00;2.90;;;2.10;;
19278;SDS011;9773;47.062;15.446;2023-07-13T04:08:27;2.70;;;2.50;;
19278;SDS011;9773;47.062;15.446;2023-07-13T04:10:56;2.20;;;2.10;;
19278;SDS011;9773;47.062;15.446;2023-07-13T04:13:22;2.47;;;2.27;;
19278;SDS011;9773;47.062;15.446;2023-07-13T04:15:49;2.30;;;2.20;;
19278;SDS011;9773;47.062;15.446;2023-07-13T04:18:15;2.47;;;2.30;;
19278;SDS011;9773;47.062;15.446;2023-07-13T04:20:41;2.43;;;2.23;;
19278;SDS011;9773;47.062;15.446;2023-07-13T04:23:06;2.30;;;2.10;;
19278;SDS011;9773;47.062;15.446;2023-07-13T04:25:32;2.33;;;2.20;;
19278;SDS011;9773;47.062;15.446;2023-07-13T04:27:58;2.20;;;2.10;;
19278;SDS011;9773;47.062;15.446;2023-07-13T04:30:25;2.93;;;2.20;;
19278;SDS011;9773;47.062;15.446;2023-07-13T04:32:52;4.50;;;2.37;;
19278;SDS011;9773;47.062;15.446;2023-07-13T04:35:19;2.53;;;2.13;;
19278;SDS011;9773;47.062;15.446;2023-07-13T04:37:46;2.33;;;2.13;;
19278;SDS011;9773;47.062;15.446;2023-07-13T04:40:18;2.03;;;1.93;;
19278;SDS011;9773;47.062;15.446;2023-07-13T04:42:45;3.53;;;2.10;;
19278;SDS011;9773;47.062;15.446;2023-07-13T04:45:12;2.57;;;2.10;;
19278;SDS011;9773;47.062;15.446;2023-07-13T04:47:39;2.20;;;2.00;;
19278;SDS011;9773;47.062;15.446;2023-07-13T04:50:07;2.20;;;2.10;;
19278;SDS011;9773;47.062;15.446;2023-07-13T04:52:35;1.87;;;1.77;;
19278;SDS011;9773;47.062;15.446;2023-07-13T04:55:01;2.53;;;2.33;;
19278;SDS011;9773;47.062;15.446;2023-07-13T04:57:27;2.30;;;2.10;;
19278;SDS011;9773;47.062;15.446;2023-07-13T04:59:53;2.23;;;1.83;;
19278;SDS011;9773;47.062;15.446;2023-07-13T05:02:22;2.53;;;1.70;;
19278;SDS011;9773;47.062;15.446;2023-07-13T05:04:48;1.80;;;1.70;;
19278;SDS011;9773;47.062;15.446;2023-07-13T05:07:14;1.67;;;1.67;;
19278;SDS011;9773;47.062;15.446;2023-07-13T05:09:40;2.97;;;1.70;;
19278;SDS011;9773;47.062;15.446;2023-07-13T05:12:06;1.90;;;1.80;;
19278;SDS011;9773;47.062;15.446;2023-07-13T05:14:34;3.33;;;2.10;;
19278;SDS011;9773;47.062;15.446;2023-07-13T05:17:00;4.90;;;2.40;;
19278;SDS011;9773;47.062;15.446;2023-07-13T05:19:27;2.00;;;1.87;;
19278;SDS011;9773;47.062;15.446;2023-07-13T05:21:53;1.87;;;1.77;;
19278;SDS011;9773;47.062;15.446;2023-07-13T05:24:19;2.90;;;1.80;;
19278;SDS011;9773;47.062;15.446;2023-07-13T05:26:44;2.03;;;1.93;;
19278;SDS011;9773;47.062;15.446;2023-07-13T05:29:10;2.03;;;1.93;;
19278;SDS011;9773;47.062;15.446;2023-07-13T05:31:36;1.90;;;1.80;;
19278;SDS011;9773;47.062;15.446;2023-07-13T05:34:02;2.40;;;2.20;;
19278;SDS011;9773;47.062;15.446;2023-07-13T05:36:28;1.67;;;1.67;;
19278;SDS011;9773;47.062;15.446;2023-07-13T05:38:53;2.00;;;1.90;;
19278;SDS011;9773;47.062;15.446;2023-07-13T05:41:19;1.80;;;1.70;;
19278;SDS011;9773;47.062;15.446;2023-07-13T05:43:45;2.10;;;1.87;;
19278;SDS011;9773;47.062;15.446;2023-07-13T05:46:11;1.80;;;1.80;;
19278;SDS011;9773;47.062;15.446;2023-07-13T05:48:36;2.50;;;1.67;;
19278;SDS011;9773;47.062;15.446;2023-07-13T05:51:12;2.87;;;1.70;;
19278;SDS011;9773;47.062;15.446;2023-07-13T05:53:40;1.73;;;1.63;;
19278;SDS011;9773;47.062;15.446;2023-07-13T05:56:05;1.80;;;1.70;;
19278;SDS011;9773;47.062;15.446;2023-07-13T05:58:31;1.70;;;1.60;;
19278;SDS011;9773;47.062;15.446;2023-07-13T06:01:04;1.90;;;1.53;;
19278;SDS011;9773;47.062;15.446;2023-07-13T06:03:32;1.53;;;1.50;;
19278;SDS011;9773;47.062;15.446;2023-07-13T06:05:58;1.20;;;1.20;;
19278;SDS011;9773;47.062;15.446;2023-07-13T06:08:27;1.87;;;1.77;;
19278;SDS011;9773;47.062;15.446;2023-07-13T06:10:54;2.90;;;1.47;;
19278;SDS011;9773;47.062;15.446;2023-07-13T06:13:26;1.33;;;1.33;;
19278;SDS011;9773;47.062;15.446;2023-07-13T06:15:51;1.70;;;1.60;;
19278;SDS011;9773;47.062;15.446;2023-07-13T06:18:17;1.90;;;1.73;;
19278;SDS011;9773;47.062;15.446;2023-07-13T06:20:43;1.60;;;1.50;;
19278;SDS011;9773;47.062;15.446;2023-07-13T06:23:08;1.40;;;1.40;;
19278;SDS011;9773;47.062;15.446;2023-07-13T06:25:34;1.33;;;1.33;;
19278;SDS011;9773;47.062;15.446;2023-07-13T06:28:00;1.80;;;1.40;;
19278;SDS011;9773;47.062;15.446;2023-07-13T06:30:27;1.93;;;1.43;;
19278;SDS011;9773;47.062;15.446;2023-07-13T06:32:53;2.07;;;1.70;;
19278;SDS011;9773;47.062;15.446;2023-07-13T06:35:18;1.50;;;1.40;;
19278;SDS011;9773;47.062;15.446;2023-07-13T06:37:44;1.97;;;1.50;;
19278;SDS011;9773;47.062;15.446;2023-07-13T06:40:10;1.40;;;1.30;;
19278;SDS011;9773;47.062;15.446;2023-07-13T06:42:36;3.70;;;1.47;;
19278;SDS011;9773;47.062;15.446;2023-07-13T06:45:03;2.50;;;2.10;;
19278;SDS011;9773;47.062;15.446;2023-07-13T06:47:29;1.70;;;1.60;;
19278;SDS011;9773;47.062;15.446;2023-07-13T06:49:55;2.50;;;1.60;;
19278;SDS011;9773;47.062;15.446;2023-07-13T06:52:21;2.30;;;1.70;;
19278;SDS011;9773;47.062;15.446;2023-07-13T06:54:47;1.60;;;1.50;;
19278;SDS011;9773;47.062;15.446;2023-07-13T06:57:12;1.50;;;1.40;;
19278;SDS011;9773;47.062;15.446;2023-07-13T06:59:38;1.90;;;1.20;;
19278;SDS011;9773;47.062;15.446;2023-07-13T07:02:04;1.50;;;1.50;;
19278;SDS011;9773;47.062;15.446;2023-07-13T07:04:30;1.53;;;1.50;;
19278;SDS011;9773;47.062;15.446;2023-07-13T07:06:56;1.67;;;1.57;;
19278;SDS011;9773;47.062;15.446;2023-07-13T07:09:21;1.53;;;1.43;;
19278;SDS011;9773;47.062;15.446;2023-07-13T07:11:47;1.50;;;1.40;;
19278;SDS011;9773;47.062;15.446;2023-07-13T07:14:13;1.20;;;1.20;;
19278;SDS011;9773;47.062;15.446;2023-07-13T07:16:38;1.63;;;1.53;;
19278;SDS011;9773;47.062;15.446;2023-07-13T07:19:04;1.20;;;1.20;;
19278;SDS011;9773;47.062;15.446;2023-07-13T07:21:30;1.20;;;1.20;;
19278;SDS011;9773;47.062;15.446;2023-07-13T07:23:56;1.03;;;0.90;;
19278;SDS011;9773;47.062;15.446;2023-07-13T07:26:22;5.23;;;1.20;;
19278;SDS011;9773;47.062;15.446;2023-07-13T07:28:48;1.00;;;1.00;;
19278;SDS011;9773;47.062;15.446;2023-07-13T07:31:13;1.27;;;1.17;;
19278;SDS011;9773;47.062;15.446;2023-07-13T07:33:39;1.70;;;1.10;;
19278;SDS011;9773;47.062;15.446;2023-07-13T07:36:05;1.90;;;1.10;;
19278;SDS011;9773;47.062;15.446;2023-07-13T07:38:31;1.52;;;1.42;;
19278;SDS011;9773;47.062;15.446;2023-07-13T07:40:56;1.67;;;1.10;;
19278;SDS011;9773;47.062;15.446;2023-07-13T07:43:22;1.20;;;1.07;;
19278;SDS011;9773;47.062;15.446;2023-07-13T07:45:48;1.00;;;1.00;;
19278;SDS011;9773;47.062;15.446;2023-07-13T07:48:14;1.27;;;1.00;;
19278;SDS011;9773;47.062;15.446;2023-07-13T07:50:40;0.90;;;0.90;;
19278;SDS011;9773;47.062;15.446;2023-07-13T07:53:06;2.10;;;1.03;;
19278;SDS011;9773;47.062;15.446;2023-07-13T07:55:33;1.15;;;1.00;;
19278;SDS011;9773;47.062;15.446;2023-07-13T07:58:02;1.05;;;1.05;;
19278;SDS011;9773;47.062;15.446;2023-07-13T08:00:28;1.20;;;1.15;;
19278;SDS011;9773;47.062;15.446;2023-07-13T08:02:57;1.05;;;1.05;;
19278;SDS011;9773;47.062;15.446;2023-07-13T08:05:24;1.00;;;1.00;;
19278;SDS011;9773;47.062;15.446;2023-07-13T08:07:50;1.17;;;1.00;;
19278;SDS011;9773;47.062;15.446;2023-07-13T08:10:16;1.05;;;1.02;;
19278;SDS011;9773;47.062;15.446;2023-07-13T08:12:43;1.20;;;1.20;;
19278;SDS011;9773;47.062;15.446;2023-07-13T08:15:11;1.17;;;1.17;;
19278;SDS011;9773;47.062;15.446;2023-07-13T08:17:39;0.80;;;0.80;;
19278;SDS011;9773;47.062;15.446;2023-07-13T08:20:04;1.50;;;1.25;;
19278;SDS011;9773;47.062;15.446;2023-07-13T08:22:31;1.80;;;1.10;;
19278;SDS011;9773;47.062;15.446;2023-07-13T08:24:56;1.08;;;1.00;;
19278;SDS011;9773;47.062;15.446;2023-07-13T08:27:23;1.13;;;0.90;;
19278;SDS011;9773;47.062;15.446;2023-07-13T08:29:50;1.10;;;1.00;;
19278;SDS011;9773;47.062;15.446;2023-07-13T08:32:16;0.90;;;0.90;;
19278;SDS011;9773;47.062;15.446;2023-07-13T08:34:43;1.00;;;1.00;;
19278;SDS011;9773;47.062;15.446;2023-07-13T08:37:09;1.40;;;1.30;;
19278;SDS011;9773;47.062;15.446;2023-07-13T08:39:35;0.73;;;0.73;;
19278;SDS011;9773;47.062;15.446;2023-07-13T08:42:11;1.52;;;1.02;;
19278;SDS011;9773;47.062;15.446;2023-07-13T08:45:21;0.73;;;0.73;;
19278;SDS011;9773;47.062;15.446;2023-07-13T08:47:51;1.10;;;1.10;;
19278;SDS011;9773;47.062;15.446;2023-07-13T08:50:19;0.77;;;0.77;;
19278;SDS011;9773;47.062;15.446;2023-07-13T08:52:51;0.93;;;0.93;;
19278;SDS011;9773;47.062;15.446;2023-07-13T08:55:21;0.80;;;0.80;;
19278;SDS011;9773;47.062;15.446;2023-07-13T08:57:56;0.85;;;0.70;;
19278;SDS011;9773;47.062;15.446;2023-07-13T09:00:34;0.70;;;0.70;;
19278;SDS011;9773;47.062;15.446;2023-07-13T09:03:24;0.80;;;0.80;;
19278;SDS011;9773;47.062;15.446;2023-07-13T09:05:58;1.00;;;1.00;;
19278;SDS011;9773;47.062;15.446;2023-07-13T09:14:31;0.98;;;0.98;;
19278;SDS011;9773;47.062;15.446;2023-07-13T09:17:05;0.82;;;0.82;;
19278;SDS011;9773;47.062;15.446;2023-07-13T09:19:37;0.98;;;0.98;;
19278;SDS011;9773;47.062;15.446;2023-07-13T09:22:05;0.90;;;0.90;;
19278;SDS011;9773;47.062;15.446;2023-07-13T09:27:26;1.00;;;1.00;;
19278;SDS011;9773;47.062;15.446;2023-07-13T09:32:47;0.85;;;0.85;;
19278;SDS011;9773;47.062;15.446;2023-07-13T09:35:18;0.80;;;0.80;;
19278;SDS011;9773;47.062;15.446;2023-07-13T09:37:47;0.93;;;0.93;;
19278;SDS011;9773;47.062;15.446;2023-07-13T09:40:38;0.88;;;0.88;;
19278;SDS011;9773;47.062;15.446;2023-07-13T09:43:04;1.00;;;1.00;;
19278;SDS011;9773;47.062;15.446;2023-07-13T09:45:33;0.93;;;0.93;;
19278;SDS011;9773;47.062;15.446;2023-07-13T09:48:03;0.80;;;0.80;;
19278;SDS011;9773;47.062;15.446;2023-07-13T09:50:35;1.30;;;1.20;;
19278;SDS011;9773;47.062;15.446;2023-07-13T09:53:02;1.77;;;1.30;;
19278;SDS011;9773;47.062;15.446;2023-07-13T09:55:32;0.93;;;0.93;;
19278;SDS011;9773;47.062;15.446;2023-07-13T09:58:15;0.95;;;0.95;;
19278;SDS011;9773;47.062;15.446;2023-07-13T10:00:55;1.00;;;1.00;;
19278;SDS011;9773;47.062;15.446;2023-07-13T10:03:26;1.17;;;0.90;;
19278;SDS011;9773;47.062;15.446;2023-07-13T10:05:53;0.93;;;0.93;;
19278;SDS011;9773;47.062;15.446;2023-07-13T10:08:29;1.08;;;1.08;;
19278;SDS011;9773;47.062;15.446;2023-07-13T10:11:01;1.02;;;1.02;;
19278;SDS011;9773;47.062;15.446;2023-07-13T10:13:35;0.85;;;0.85;;
19278;SDS011;9773;47.062;15.446;2023-07-13T10:16:07;1.13;;;1.13;;
19278;SDS011;9773;47.062;15.446;2023-07-13T10:18:47;1.27;;;1.27;;
19278;SDS011;9773;47.062;15.446;2023-07-13T10:21:18;0.95;;;0.95;;
19278;SDS011;9773;47.062;15.446;2023-07-13T10:23:54;1.30;;;1.30;;
19278;SDS011;9773;47.062;15.446;2023-07-13T10:26:25;1.15;;;1.15;;
19278;SDS011;9773;47.062;15.446;2023-07-13T10:28:56;0.85;;;0.85;;
19278;SDS011;9773;47.062;15.446;2023-07-13T10:31:26;1.60;;;1.10;;
19278;SDS011;9773;47.062;15.446;2023-07-13T10:33:52;0.90;;;0.90;;
19278;SDS011;9773;47.062;15.446;2023-07-13T10:38:50;0.85;;;0.85;;
19278;SDS011;9773;47.062;15.446;2023-07-13T10:41:19;1.30;;;1.30;;
19278;SDS011;9773;47.062;15.446;2023-07-13T10:43:49;1.00;;;1.00;;
19278;SDS011;9773;47.062;15.446;2023-07-13T10:46:18;1.20;;;1.10;;
19278;SDS011;9773;47.062;15.446;2023-07-13T10:48:48;1.10;;;1.10;;
19278;SDS011;9773;47.062;15.446;2023-07-13T10:51:19;1.13;;;1.13;;
19278;SDS011;9773;47.062;15.446;2023-07-13T10:53:46;1.38;;;1.23;;
19278;SDS011;9773;47.062;15.446;2023-07-13T10:56:24;1.13;;;1.02;;
19278;SDS011;9773;47.062;15.446;2023-07-13T10:59:05;1.60;;;1.10;;
19278;SDS011;9773;47.062;15.446;2023-07-13T11:01:46;0.95;;;0.95;;
19278;SDS011;9773;47.062;15.446;2023-07-13T11:04:21;1.27;;;1.08;;
19278;SDS011;9773;47.062;15.446;2023-07-13T11:06:50;0.85;;;0.85;;
19278;SDS011;9773;47.062;15.446;2023-07-13T11:20:42;1.15;;;1.15;;
19278;SDS011;9773;47.062;15.446;2023-07-13T11:22:51;1.13;;;1.13;;
19278;SDS011;9773;47.062;15.446;2023-07-13T11:25:32;0.90;;;0.90;;
19278;SDS011;9773;47.062;15.446;2023-07-13T11:30:41;2.60;;;1.20;;
19278;SDS011;9773;47.062;15.446;2023-07-13T11:35:59;1.10;;;1.10;;
19278;SDS011;9773;47.062;15.446;2023-07-13T11:38:38;1.30;;;1.30;;
19278;SDS011;9773;47.062;15.446;2023-07-13T11:41:17;0.93;;;0.93;;
19278;SDS011;9773;47.062;15.446;2023-07-13T11:44:01;1.30;;;1.30;;
19278;SDS011;9773;47.062;15.446;2023-07-13T11:46:36;1.10;;;1.10;;
19278;SDS011;9773;47.062;15.446;2023-07-13T11:49:04;1.30;;;1.25;;
19278;SDS011;9773;47.062;15.446;2023-07-13T11:51:33;1.63;;;1.55;;
19278;SDS011;9773;47.062;15.446;2023-07-13T11:54:15;1.40;;;1.40;;
19278;SDS011;9773;47.062;15.446;2023-07-13T11:56:51;1.20;;;1.20;;
19278;SDS011;9773;47.062;15.446;2023-07-13T11:59:18;1.30;;;1.30;;
19278;SDS011;9773;47.062;15.446;2023-07-13T12:01:51;1.00;;;1.00;;
19278;SDS011;9773;47.062;15.446;2023-07-13T12:04:20;1.13;;;1.13;;
19278;SDS011;9773;47.062;15.446;2023-07-13T12:06:56;1.42;;;1.42;;
19278;SDS011;9773;47.062;15.446;2023-07-13T12:09:28;1.10;;;1.10;;
19278;SDS011;9773;47.062;15.446;2023-07-13T12:11:54;1.67;;;1.42;;
19278;SDS011;9773;47.062;15.446;2023-07-13T12:14:22;1.52;;;1.42;;
19278;SDS011;9773;47.062;15.446;2023-07-13T12:16:50;1.42;;;1.42;;
19278;SDS011;9773;47.062;15.446;2023-07-13T12:19:20;1.13;;;1.13;;
19278;SDS011;9773;47.062;15.446;2023-07-13T12:21:48;1.45;;;1.35;;
19278;SDS011;9773;47.062;15.446;2023-07-13T12:24:19;1.27;;;1.27;;
19278;SDS011;9773;47.062;15.446;2023-07-13T12:26:54;1.52;;;1.52;;
19278;SDS011;9773;47.062;15.446;2023-07-13T12:29:24;3.40;;;1.42;;
19278;SDS011;9773;47.062;15.446;2023-07-13T12:31:50;1.50;;;1.40;;
19278;SDS011;9773;47.062;15.446;2023-07-13T12:34:20;2.80;;;1.27;;
19278;SDS011;9773;47.062;15.446;2023-07-13T12:37:01;1.45;;;1.42;;
19278;SDS011;9773;47.062;15.446;2023-07-13T12:39:34;1.35;;;1.35;;
19278;SDS011;9773;47.062;15.446;2023-07-13T12:42:36;1.40;;;1.30;;
19278;SDS011;9773;47.062;15.446;2023-07-13T12:45:01;1.55;;;1.52;;
19278;SDS011;9773;47.062;15.446;2023-07-13T12:47:40;1.50;;;1.50;;
19278;SDS011;9773;47.062;15.446;2023-07-13T12:50:15;1.42;;;1.42;;
19278;SDS011;9773;47.062;15.446;2023-07-13T12:52:43;1.73;;;1.67;;
19278;SDS011;9773;47.062;15.446;2023-07-13T12:55:19;1.70;;;1.58;;
19278;SDS011;9773;47.062;15.446;2023-07-13T12:57:50;1.50;;;1.40;;
19278;SDS011;9773;47.062;15.446;2023-07-13T13:02:50;1.85;;;1.50;;
19278;SDS011;9773;47.062;15.446;2023-07-13T13:05:21;1.55;;;1.45;;
19278;SDS011;9773;47.062;15.446;2023-07-13T13:07:50;1.75;;;1.42;;
19278;SDS011;9773;47.062;15.446;2023-07-13T13:10:16;1.77;;;1.67;;
19278;SDS011;9773;47.062;15.446;2023-07-13T13:12:42;2.17;;;1.50;;
19278;SDS011;9773;47.062;15.446;2023-07-13T13:15:08;1.70;;;1.60;;
19278;SDS011;9773;47.062;15.446;2023-07-13T13:17:36;1.92;;;1.42;;
19278;SDS011;9773;47.062;15.446;2023-07-13T13:20:19;1.40;;;1.30;;
19278;SDS011;9773;47.062;15.446;2023-07-13T13:22:46;1.63;;;1.50;;
19278;SDS011;9773;47.062;15.446;2023-07-13T13:25:13;1.85;;;1.75;;
19278;SDS011;9773;47.062;15.446;2023-07-13T13:27:43;2.78;;;1.58;;
19278;SDS011;9773;47.062;15.446;2023-07-13T13:32:38;1.40;;;1.30;;
19278;SDS011;9773;47.062;15.446;2023-07-13T13:35:05;1.70;;;1.60;;
19278;SDS011;9773;47.062;15.446;2023-07-13T13:37:37;2.15;;;1.42;;
19278;SDS011;9773;47.062;15.446;2023-07-13T13:40:05;1.40;;;1.40;;
19278;SDS011;9773;47.062;15.446;2023-07-13T13:42:43;2.22;;;2.00;;
19278;SDS011;9773;47.062;15.446;2023-07-13T13:45:09;1.88;;;1.77;;
19278;SDS011;9773;47.062;15.446;2023-07-13T13:47:37;1.48;;;1.38;;
19278;SDS011;9773;47.062;15.446;2023-07-13T13:50:13;1.48;;;1.38;;
19278;SDS011;9773;47.062;15.446;2023-07-13T13:52:42;1.60;;;1.52;;
19278;SDS011;9773;47.062;15.446;2023-07-13T13:55:18;1.90;;;1.52;;
19278;SDS011;9773;47.062;15.446;2023-07-13T13:57:45;1.83;;;1.48;;
19278;SDS011;9773;47.062;15.446;2023-07-13T14:00:12;1.42;;;1.30;;
19278;SDS011;9773;47.062;15.446;2023-07-13T14:02:40;1.60;;;1.50;;
19278;SDS011;9773;47.062;15.446;2023-07-13T14:05:12;1.88;;;1.50;;
19278;SDS011;9773;47.062;15.446;2023-07-13T14:07:39;1.40;;;1.30;;
19278;SDS011;9773;47.062;15.446;2023-07-13T14:10:10;1.40;;;1.40;;
19278;SDS011;9773;47.062;15.446;2023-07-13T14:12:38;1.50;;;1.40;;
19278;SDS011;9773;47.062;15.446;2023-07-13T14:15:04;1.05;;;1.05;;
19278;SDS011;9773;47.062;15.446;2023-07-13T14:17:31;0.90;;;0.90;;
19278;SDS011;9773;47.062;15.446;2023-07-13T14:19:58;1.30;;;1.30;;
19278;SDS011;9773;47.062;15.446;2023-07-13T14:22:25;1.20;;;1.20;;
19278;SDS011;9773;47.062;15.446;2023-07-13T14:24:55;1.30;;;1.30;;
19278;SDS011;9773;47.062;15.446;2023-07-13T14:27:23;1.20;;;1.20;;
19278;SDS011;9773;47.062;15.446;2023-07-13T14:29:50;1.10;;;1.10;;
19278;SDS011;9773;47.062;15.446;2023-07-13T14:32:16;1.30;;;1.20;;
19278;SDS011;9773;47.062;15.446;2023-07-13T14:34:42;1.40;;;1.40;;
19278;SDS011;9773;47.062;15.446;2023-07-13T14:37:11;1.50;;;1.50;;
19278;SDS011;9773;47.062;15.446;2023-07-13T14:39:39;1.50;;;1.50;;
19278;SDS011;9773;47.062;15.446;2023-07-13T14:42:08;1.50;;;1.40;;
19278;SDS011;9773;47.062;15.446;2023-07-13T14:44:35;1.70;;;1.60;;
19278;SDS011;9773;47.062;15.446;2023-07-13T14:47:02;1.40;;;1.30;;
19278;SDS011;9773;47.062;15.446;2023-07-13T14:51:58;1.20;;;1.20;;
19278;SDS011;9773;47.062;15.446;2023-07-13T14:54:35;1.37;;;1.37;;
19278;SDS011;9773;47.062;15.446;2023-07-13T14:57:08;1.60;;;1.60;;
19278;SDS011;9773;47.062;15.446;2023-07-13T14:59:35;1.63;;;1.53;;
19278;SDS011;9773;47.062;15.446;2023-07-13T15:02:02;1.33;;;1.30;;
19278;SDS011;9773;47.062;15.446;2023-07-13T15:04:37;2.37;;;1.40;;
19278;SDS011;9773;47.062;15.446;2023-07-13T15:07:04;1.50;;;1.40;;
19278;SDS011;9773;47.062;15.446;2023-07-13T15:09:30;1.53;;;1.53;;
19278;SDS011;9773;47.062;15.446;2023-07-13T15:11:56;1.40;;;1.40;;
19278;SDS011;9773;47.062;15.446;2023-07-13T15:14:22;1.80;;;1.70;;
19278;SDS011;9773;47.062;15.446;2023-07-13T15:16:50;2.17;;;2.07;;
19278;SDS011;9773;47.062;15.446;2023-07-13T15:19:19;1.53;;;1.50;;
19278;SDS011;9773;47.062;15.446;2023-07-13T15:21:48;1.43;;;1.37;;
19278;SDS011;9773;47.062;15.446;2023-07-13T15:24:15;1.50;;;1.40;;
19278;SDS011;9773;47.062;15.446;2023-07-13T15:26:41;1.70;;;1.60;;
19278;SDS011;9773;47.062;15.446;2023-07-13T15:29:10;1.73;;;1.63;;
19278;SDS011;9773;47.062;15.446;2023-07-13T15:31:36;1.60;;;1.50;;
19278;SDS011;9773;47.062;15.446;2023-07-13T15:34:04;3.33;;;1.87;;
19278;SDS011;9773;47.062;15.446;2023-07-13T15:36:51;2.40;;;1.97;;